sensor_id;sensor_type;location;lat;lon;timestamp;P1;durP1;ratioP1;P2;durP2;ratioP2
17564;SDS011;62994;52.126;5.596;2023-04-23T00:00:04;51.80;;;33.10;;
17564;SDS011;62994;52.126;5.596;2023-04-23T00:02:37;45.78;;;31.02;;
17564;SDS011;62994;52.126;5.596;2023-04-23T00:05:07;47.42;;;31.55;;
17564;SDS011;62994;52.126;5.596;2023-04-23T00:07:37;51.70;;;32.20;;
17564;SDS011;62994;52.126;5.596;2023-04-23T00:10:09;54.97;;;34.13;;
17564;SDS011;62994;52.126;5.596;2023-04-23T00:12:46;56.70;;;33.53;;
17564;SDS011;62994;52.126;5.596;2023-04-23T00:15:14;53.88;;;33.60;;
17564;SDS011;62994;52.126;5.596;2023-04-23T00:17:47;56.53;;;34.40;;
17564;SDS011;62994;52.126;5.596;2023-04-23T00:20:14;54.28;;;33.63;;
17564;SDS011;62994;52.126;5.596;2023-04-23T00:22:47;54.92;;;34.03;;
17564;SDS011;62994;52.126;5.596;2023-04-23T00:25:15;58.40;;;34.92;;
17564;SDS011;62994;52.126;5.596;2023-04-23T00:27:43;55.47;;;32.55;;
17564;SDS011;62994;52.126;5.596;2023-04-23T00:30:15;55.75;;;34.40;;
17564;SDS011;62994;52.126;5.596;2023-04-23T00:32:45;66.32;;;36.15;;
17564;SDS011;62994;52.126;5.596;2023-04-23T00:35:15;58.40;;;34.85;;
17564;SDS011;62994;52.126;5.596;2023-04-23T00:37:44;60.78;;;35.53;;
17564;SDS011;62994;52.126;5.596;2023-04-23T00:40:12;61.00;;;34.03;;
17564;SDS011;62994;52.126;5.596;2023-04-23T00:42:40;60.08;;;36.15;;
17564;SDS011;62994;52.126;5.596;2023-04-23T00:45:08;61.17;;;35.60;;
17564;SDS011;62994;52.126;5.596;2023-04-23T00:47:36;61.58;;;35.65;;
17564;SDS011;62994;52.126;5.596;2023-04-23T00:50:03;56.20;;;33.50;;
17564;SDS011;62994;52.126;5.596;2023-04-23T00:52:32;63.13;;;35.72;;
17564;SDS011;62994;52.126;5.596;2023-04-23T00:55:05;63.50;;;36.10;;
17564;SDS011;62994;52.126;5.596;2023-04-23T00:57:33;60.17;;;35.83;;
17564;SDS011;62994;52.126;5.596;2023-04-23T01:00:03;62.90;;;35.85;;
17564;SDS011;62994;52.126;5.596;2023-04-23T01:02:32;65.05;;;37.15;;
17564;SDS011;62994;52.126;5.596;2023-04-23T01:05:02;67.22;;;36.33;;
17564;SDS011;62994;52.126;5.596;2023-04-23T01:07:30;63.42;;;37.15;;
17564;SDS011;62994;52.126;5.596;2023-04-23T01:10:02;65.22;;;36.55;;
17564;SDS011;62994;52.126;5.596;2023-04-23T01:12:30;75.05;;;38.03;;
17564;SDS011;62994;52.126;5.596;2023-04-23T01:14:57;72.00;;;38.35;;
17564;SDS011;62994;52.126;5.596;2023-04-23T01:17:25;69.72;;;37.45;;
17564;SDS011;62994;52.126;5.596;2023-04-23T01:19:52;70.45;;;37.35;;
17564;SDS011;62994;52.126;5.596;2023-04-23T01:22:21;67.57;;;36.50;;
17564;SDS011;62994;52.126;5.596;2023-04-23T01:24:48;68.22;;;37.55;;
17564;SDS011;62994;52.126;5.596;2023-04-23T01:27:15;66.85;;;36.75;;
17564;SDS011;62994;52.126;5.596;2023-04-23T01:29:44;70.65;;;37.45;;
17564;SDS011;62994;52.126;5.596;2023-04-23T01:32:12;70.82;;;37.45;;
17564;SDS011;62994;52.126;5.596;2023-04-23T01:34:39;69.88;;;37.97;;
17564;SDS011;62994;52.126;5.596;2023-04-23T01:37:07;69.40;;;38.72;;
17564;SDS011;62994;52.126;5.596;2023-04-23T01:39:36;75.03;;;40.65;;
17564;SDS011;62994;52.126;5.596;2023-04-23T01:42:03;69.28;;;38.13;;
17564;SDS011;62994;52.126;5.596;2023-04-23T01:44:32;72.85;;;39.10;;
17564;SDS011;62994;52.126;5.596;2023-04-23T01:47:08;68.10;;;36.88;;
17564;SDS011;62994;52.126;5.596;2023-04-23T01:49:36;72.75;;;38.78;;
17564;SDS011;62994;52.126;5.596;2023-04-23T01:52:03;70.53;;;38.63;;
17564;SDS011;62994;52.126;5.596;2023-04-23T01:54:30;74.15;;;37.72;;
17564;SDS011;62994;52.126;5.596;2023-04-23T01:56:58;65.25;;;34.95;;
17564;SDS011;62994;52.126;5.596;2023-04-23T01:59:31;72.78;;;38.60;;
17564;SDS011;62994;52.126;5.596;2023-04-23T02:01:58;72.82;;;39.03;;
17564;SDS011;62994;52.126;5.596;2023-04-23T02:04:27;66.57;;;35.72;;
17564;SDS011;62994;52.126;5.596;2023-04-23T02:06:55;71.82;;;37.35;;
17564;SDS011;62994;52.126;5.596;2023-04-23T02:09:22;74.57;;;44.88;;
17564;SDS011;62994;52.126;5.596;2023-04-23T02:11:51;73.43;;;39.47;;
17564;SDS011;62994;52.126;5.596;2023-04-23T02:14:23;70.93;;;38.75;;
17564;SDS011;62994;52.126;5.596;2023-04-23T02:16:50;70.50;;;37.78;;
17564;SDS011;62994;52.126;5.596;2023-04-23T02:19:17;64.35;;;34.83;;
17564;SDS011;62994;52.126;5.596;2023-04-23T02:21:43;68.88;;;36.78;;
17564;SDS011;62994;52.126;5.596;2023-04-23T02:24:10;59.38;;;34.78;;
17564;SDS011;62994;52.126;5.596;2023-04-23T02:26:37;66.30;;;35.85;;
17564;SDS011;62994;52.126;5.596;2023-04-23T02:29:04;58.63;;;34.22;;
17564;SDS011;62994;52.126;5.596;2023-04-23T02:31:32;62.65;;;35.40;;
17564;SDS011;62994;52.126;5.596;2023-04-23T02:34:01;72.00;;;36.83;;
17564;SDS011;62994;52.126;5.596;2023-04-23T02:36:28;63.85;;;35.97;;
17564;SDS011;62994;52.126;5.596;2023-04-23T02:38:56;62.08;;;35.63;;
17564;SDS011;62994;52.126;5.596;2023-04-23T02:41:23;62.97;;;36.05;;
17564;SDS011;62994;52.126;5.596;2023-04-23T02:43:50;55.47;;;33.63;;
17564;SDS011;62994;52.126;5.596;2023-04-23T02:46:17;63.08;;;34.53;;
17564;SDS011;62994;52.126;5.596;2023-04-23T02:48:45;58.28;;;33.00;;
17564;SDS011;62994;52.126;5.596;2023-04-23T02:51:12;57.13;;;33.17;;
17564;SDS011;62994;52.126;5.596;2023-04-23T02:53:43;57.97;;;32.75;;
17564;SDS011;62994;52.126;5.596;2023-04-23T02:56:10;53.72;;;31.52;;
17564;SDS011;62994;52.126;5.596;2023-04-23T02:58:37;55.10;;;31.80;;
17564;SDS011;62994;52.126;5.596;2023-04-23T03:01:04;56.85;;;33.72;;
17564;SDS011;62994;52.126;5.596;2023-04-23T03:03:32;55.38;;;32.22;;
17564;SDS011;62994;52.126;5.596;2023-04-23T03:06:01;61.97;;;33.33;;
17564;SDS011;62994;52.126;5.596;2023-04-23T03:08:28;56.75;;;31.27;;
17564;SDS011;62994;52.126;5.596;2023-04-23T03:10:55;50.78;;;29.92;;
17564;SDS011;62994;52.126;5.596;2023-04-23T03:13:23;51.30;;;29.83;;
17564;SDS011;62994;52.126;5.596;2023-04-23T03:15:53;54.92;;;30.75;;
17564;SDS011;62994;52.126;5.596;2023-04-23T03:18:21;49.78;;;29.02;;
17564;SDS011;62994;52.126;5.596;2023-04-23T03:20:48;53.72;;;30.95;;
17564;SDS011;62994;52.126;5.596;2023-04-23T03:23:17;48.67;;;29.63;;
17564;SDS011;62994;52.126;5.596;2023-04-23T03:25:44;54.13;;;30.23;;
17564;SDS011;62994;52.126;5.596;2023-04-23T03:28:11;51.22;;;29.48;;
17564;SDS011;62994;52.126;5.596;2023-04-23T03:30:38;48.85;;;29.15;;
17564;SDS011;62994;52.126;5.596;2023-04-23T03:33:05;49.63;;;29.83;;
17564;SDS011;62994;52.126;5.596;2023-04-23T03:35:32;47.85;;;28.30;;
17564;SDS011;62994;52.126;5.596;2023-04-23T03:38:02;49.20;;;28.83;;
17564;SDS011;62994;52.126;5.596;2023-04-23T03:40:31;47.13;;;27.70;;
17564;SDS011;62994;52.126;5.596;2023-04-23T03:42:57;42.38;;;26.98;;
17564;SDS011;62994;52.126;5.596;2023-04-23T03:45:24;45.50;;;27.35;;
17564;SDS011;62994;52.126;5.596;2023-04-23T03:47:52;43.30;;;26.60;;
17564;SDS011;62994;52.126;5.596;2023-04-23T03:50:22;46.83;;;26.88;;
17564;SDS011;62994;52.126;5.596;2023-04-23T03:52:49;43.20;;;26.73;;
17564;SDS011;62994;52.126;5.596;2023-04-23T03:55:22;39.00;;;25.48;;
17564;SDS011;62994;52.126;5.596;2023-04-23T03:57:50;38.33;;;24.85;;
17564;SDS011;62994;52.126;5.596;2023-04-23T04:00:17;40.72;;;24.25;;
17564;SDS011;62994;52.126;5.596;2023-04-23T04:02:44;37.67;;;23.80;;
17564;SDS011;62994;52.126;5.596;2023-04-23T04:05:20;38.85;;;24.35;;
17564;SDS011;62994;52.126;5.596;2023-04-23T04:07:47;34.25;;;23.80;;
17564;SDS011;62994;52.126;5.596;2023-04-23T04:10:14;40.53;;;24.88;;
17564;SDS011;62994;52.126;5.596;2023-04-23T04:12:41;37.67;;;23.75;;
17564;SDS011;62994;52.126;5.596;2023-04-23T04:15:11;39.63;;;24.92;;
17564;SDS011;62994;52.126;5.596;2023-04-23T04:17:38;36.63;;;22.95;;
17564;SDS011;62994;52.126;5.596;2023-04-23T04:20:05;36.88;;;24.13;;
17564;SDS011;62994;52.126;5.596;2023-04-23T04:22:35;34.35;;;23.08;;
17564;SDS011;62994;52.126;5.596;2023-04-23T04:25:02;38.88;;;23.58;;
17564;SDS011;62994;52.126;5.596;2023-04-23T04:27:29;35.47;;;26.80;;
17564;SDS011;62994;52.126;5.596;2023-04-23T04:29:57;37.08;;;24.83;;
17564;SDS011;62994;52.126;5.596;2023-04-23T04:32:28;33.78;;;23.02;;
17564;SDS011;62994;52.126;5.596;2023-04-23T04:34:58;33.47;;;21.40;;
17564;SDS011;62994;52.126;5.596;2023-04-23T04:37:26;32.33;;;22.88;;
17564;SDS011;62994;52.126;5.596;2023-04-23T04:39:53;31.95;;;22.50;;
17564;SDS011;62994;52.126;5.596;2023-04-23T04:42:21;33.33;;;22.20;;
17564;SDS011;62994;52.126;5.596;2023-04-23T04:44:49;32.30;;;21.90;;
17564;SDS011;62994;52.126;5.596;2023-04-23T04:47:17;36.03;;;22.05;;
17564;SDS011;62994;52.126;5.596;2023-04-23T04:49:46;34.40;;;21.50;;
17564;SDS011;62994;52.126;5.596;2023-04-23T04:52:13;36.05;;;23.50;;
17564;SDS011;62994;52.126;5.596;2023-04-23T04:54:41;31.30;;;21.73;;
17564;SDS011;62994;52.126;5.596;2023-04-23T04:57:08;35.03;;;23.83;;
17564;SDS011;62994;52.126;5.596;2023-04-23T04:59:35;33.60;;;22.92;;
17564;SDS011;62994;52.126;5.596;2023-04-23T05:02:02;36.88;;;23.25;;
17564;SDS011;62994;52.126;5.596;2023-04-23T05:04:30;34.53;;;23.30;;
17564;SDS011;62994;52.126;5.596;2023-04-23T05:06:59;30.17;;;22.73;;
17564;SDS011;62994;52.126;5.596;2023-04-23T05:09:27;32.60;;;21.83;;
17564;SDS011;62994;52.126;5.596;2023-04-23T05:11:54;33.80;;;23.63;;
17564;SDS011;62994;52.126;5.596;2023-04-23T05:14:22;30.65;;;21.50;;
17564;SDS011;62994;52.126;5.596;2023-04-23T05:16:50;29.60;;;21.83;;
17564;SDS011;62994;52.126;5.596;2023-04-23T05:19:18;29.75;;;21.73;;
17564;SDS011;62994;52.126;5.596;2023-04-23T05:21:45;31.38;;;22.70;;
17564;SDS011;62994;52.126;5.596;2023-04-23T05:24:14;40.92;;;22.05;;
17564;SDS011;62994;52.126;5.596;2023-04-23T05:26:41;31.27;;;21.42;;
17564;SDS011;62994;52.126;5.596;2023-04-23T05:29:08;31.15;;;22.30;;
17564;SDS011;62994;52.126;5.596;2023-04-23T05:31:38;29.25;;;22.08;;
17564;SDS011;62994;52.126;5.596;2023-04-23T05:34:05;31.30;;;20.30;;
17564;SDS011;62994;52.126;5.596;2023-04-23T05:36:32;29.13;;;21.67;;
17564;SDS011;62994;52.126;5.596;2023-04-23T05:39:00;31.30;;;22.55;;
17564;SDS011;62994;52.126;5.596;2023-04-23T05:41:31;27.58;;;20.70;;
17564;SDS011;62994;52.126;5.596;2023-04-23T05:43:58;29.58;;;22.10;;
17564;SDS011;62994;52.126;5.596;2023-04-23T05:46:26;30.30;;;20.92;;
17564;SDS011;62994;52.126;5.596;2023-04-23T05:48:53;25.95;;;21.13;;
17564;SDS011;62994;52.126;5.596;2023-04-23T05:51:22;29.70;;;21.33;;
17564;SDS011;62994;52.126;5.596;2023-04-23T05:53:51;28.88;;;20.52;;
17564;SDS011;62994;52.126;5.596;2023-04-23T05:56:21;28.80;;;20.95;;
17564;SDS011;62994;52.126;5.596;2023-04-23T05:58:49;25.85;;;20.27;;
17564;SDS011;62994;52.126;5.596;2023-04-23T06:01:17;30.13;;;21.63;;
17564;SDS011;62994;52.126;5.596;2023-04-23T06:03:44;27.38;;;20.20;;
17564;SDS011;62994;52.126;5.596;2023-04-23T06:06:12;26.02;;;19.80;;
17564;SDS011;62994;52.126;5.596;2023-04-23T06:08:39;33.58;;;22.35;;
17564;SDS011;62994;52.126;5.596;2023-04-23T06:11:06;24.77;;;19.83;;
17564;SDS011;62994;52.126;5.596;2023-04-23T06:13:34;27.40;;;20.92;;
17564;SDS011;62994;52.126;5.596;2023-04-23T06:16:06;23.90;;;20.10;;
17564;SDS011;62994;52.126;5.596;2023-04-23T06:18:33;23.55;;;19.45;;
17564;SDS011;62994;52.126;5.596;2023-04-23T06:21:02;29.65;;;20.52;;
17564;SDS011;62994;52.126;5.596;2023-04-23T06:23:30;24.80;;;19.15;;
17564;SDS011;62994;52.126;5.596;2023-04-23T06:25:57;25.63;;;19.23;;
17564;SDS011;62994;52.126;5.596;2023-04-23T06:28:25;23.80;;;19.00;;
17564;SDS011;62994;52.126;5.596;2023-04-23T06:30:55;24.02;;;19.35;;
17564;SDS011;62994;52.126;5.596;2023-04-23T06:33:24;20.50;;;18.30;;
17564;SDS011;62994;52.126;5.596;2023-04-23T06:35:51;22.45;;;18.63;;
17564;SDS011;62994;52.126;5.596;2023-04-23T06:38:18;23.80;;;18.48;;
17564;SDS011;62994;52.126;5.596;2023-04-23T06:40:47;26.73;;;17.30;;
17564;SDS011;62994;52.126;5.596;2023-04-23T06:43:17;21.05;;;17.92;;
17564;SDS011;62994;52.126;5.596;2023-04-23T06:45:44;21.45;;;19.35;;
17564;SDS011;62994;52.126;5.596;2023-04-23T06:48:16;19.33;;;17.33;;
17564;SDS011;62994;52.126;5.596;2023-04-23T06:50:48;18.58;;;16.55;;
17564;SDS011;62994;52.126;5.596;2023-04-23T06:53:16;16.95;;;15.25;;
17564;SDS011;62994;52.126;5.596;2023-04-23T06:55:43;17.88;;;15.75;;
17564;SDS011;62994;52.126;5.596;2023-04-23T06:58:15;17.67;;;15.85;;
17564;SDS011;62994;52.126;5.596;2023-04-23T07:00:42;16.83;;;15.23;;
17564;SDS011;62994;52.126;5.596;2023-04-23T07:03:10;16.67;;;14.90;;
17564;SDS011;62994;52.126;5.596;2023-04-23T07:05:37;17.95;;;15.57;;
17564;SDS011;62994;52.126;5.596;2023-04-23T07:08:05;16.80;;;14.85;;
17564;SDS011;62994;52.126;5.596;2023-04-23T07:10:33;16.42;;;14.82;;
17564;SDS011;62994;52.126;5.596;2023-04-23T07:13:00;15.70;;;14.10;;
17564;SDS011;62994;52.126;5.596;2023-04-23T07:15:29;15.55;;;14.02;;
17564;SDS011;62994;52.126;5.596;2023-04-23T07:17:56;15.55;;;14.05;;
17564;SDS011;62994;52.126;5.596;2023-04-23T07:20:24;15.23;;;13.68;;
17564;SDS011;62994;52.126;5.596;2023-04-23T07:22:51;14.57;;;13.27;;
17564;SDS011;62994;52.126;5.596;2023-04-23T07:25:20;12.93;;;11.90;;
17564;SDS011;62994;52.126;5.596;2023-04-23T07:27:48;13.55;;;12.20;;
17564;SDS011;62994;52.126;5.596;2023-04-23T07:30:16;12.35;;;11.20;;
17564;SDS011;62994;52.126;5.596;2023-04-23T07:32:43;12.38;;;11.48;;
17564;SDS011;62994;52.126;5.596;2023-04-23T07:35:15;12.88;;;11.90;;
17564;SDS011;62994;52.126;5.596;2023-04-23T07:37:42;12.25;;;10.93;;
17564;SDS011;62994;52.126;5.596;2023-04-23T07:40:10;12.10;;;11.30;;
17564;SDS011;62994;52.126;5.596;2023-04-23T07:42:38;12.38;;;11.02;;
17564;SDS011;62994;52.126;5.596;2023-04-23T07:45:06;10.95;;;9.95;;
17564;SDS011;62994;52.126;5.596;2023-04-23T07:47:35;9.95;;;9.25;;
17564;SDS011;62994;52.126;5.596;2023-04-23T07:50:02;9.00;;;8.40;;
17564;SDS011;62994;52.126;5.596;2023-04-23T07:52:30;10.75;;;9.88;;
17564;SDS011;62994;52.126;5.596;2023-04-23T07:54:57;9.32;;;8.73;;
17564;SDS011;62994;52.126;5.596;2023-04-23T07:57:25;9.73;;;9.10;;
17564;SDS011;62994;52.126;5.596;2023-04-23T07:59:53;8.38;;;7.57;;
17564;SDS011;62994;52.126;5.596;2023-04-23T08:02:20;9.45;;;8.75;;
17564;SDS011;62994;52.126;5.596;2023-04-23T08:04:50;8.85;;;8.20;;
17564;SDS011;62994;52.126;5.596;2023-04-23T08:07:17;8.70;;;8.00;;
17564;SDS011;62994;52.126;5.596;2023-04-23T08:09:45;9.20;;;7.85;;
17564;SDS011;62994;52.126;5.596;2023-04-23T08:12:12;8.18;;;7.47;;
17564;SDS011;62994;52.126;5.596;2023-04-23T08:14:41;8.35;;;6.82;;
17564;SDS011;62994;52.126;5.596;2023-04-23T08:17:10;7.50;;;7.00;;
17564;SDS011;62994;52.126;5.596;2023-04-23T08:19:37;7.43;;;6.93;;
17564;SDS011;62994;52.126;5.596;2023-04-23T08:22:04;7.75;;;6.72;;
17564;SDS011;62994;52.126;5.596;2023-04-23T08:24:32;7.88;;;7.20;;
17564;SDS011;62994;52.126;5.596;2023-04-23T08:26:59;7.53;;;6.97;;
17564;SDS011;62994;52.126;5.596;2023-04-23T08:29:27;6.72;;;6.20;;
17564;SDS011;62994;52.126;5.596;2023-04-23T08:31:54;6.22;;;5.82;;
17564;SDS011;62994;52.126;5.596;2023-04-23T08:34:22;11.40;;;6.07;;
17564;SDS011;62994;52.126;5.596;2023-04-23T08:36:50;6.13;;;5.63;;
17564;SDS011;62994;52.126;5.596;2023-04-23T08:39:17;11.60;;;6.55;;
17564;SDS011;62994;52.126;5.596;2023-04-23T08:41:45;6.07;;;5.57;;
17564;SDS011;62994;52.126;5.596;2023-04-23T08:44:21;5.82;;;5.45;;
17564;SDS011;62994;52.126;5.596;2023-04-23T08:46:49;6.50;;;5.88;;
17564;SDS011;62994;52.126;5.596;2023-04-23T08:49:18;5.57;;;4.95;;
17564;SDS011;62994;52.126;5.596;2023-04-23T08:51:47;7.88;;;5.18;;
17564;SDS011;62994;52.126;5.596;2023-04-23T08:54:18;8.18;;;5.40;;
17564;SDS011;62994;52.126;5.596;2023-04-23T08:56:50;5.97;;;5.40;;
17564;SDS011;62994;52.126;5.596;2023-04-23T08:59:21;5.60;;;5.10;;
17564;SDS011;62994;52.126;5.596;2023-04-23T09:01:48;5.80;;;5.30;;
17564;SDS011;62994;52.126;5.596;2023-04-23T09:04:16;5.18;;;4.72;;
17564;SDS011;62994;52.126;5.596;2023-04-23T09:06:44;5.35;;;4.85;;
17564;SDS011;62994;52.126;5.596;2023-04-23T09:09:14;5.07;;;3.92;;
17564;SDS011;62994;52.126;5.596;2023-04-23T09:11:43;10.32;;;4.22;;
17564;SDS011;62994;52.126;5.596;2023-04-23T09:14:10;5.57;;;3.92;;
17564;SDS011;62994;52.126;5.596;2023-04-23T09:16:38;7.97;;;4.38;;
17564;SDS011;62994;52.126;5.596;2023-04-23T09:19:06;4.72;;;4.32;;
17564;SDS011;62994;52.126;5.596;2023-04-23T09:21:36;4.80;;;4.15;;
17564;SDS011;62994;52.126;5.596;2023-04-23T09:24:07;6.20;;;4.38;;
17564;SDS011;62994;52.126;5.596;2023-04-23T09:26:40;7.18;;;3.97;;
17564;SDS011;62994;52.126;5.596;2023-04-23T09:29:12;7.57;;;3.38;;
17564;SDS011;62994;52.126;5.596;2023-04-23T09:31:43;4.57;;;3.85;;
17564;SDS011;62994;52.126;5.596;2023-04-23T09:34:11;8.13;;;3.92;;
17564;SDS011;62994;52.126;5.596;2023-04-23T09:36:42;6.28;;;3.88;;
17564;SDS011;62994;52.126;5.596;2023-04-23T09:39:12;5.70;;;3.72;;
17564;SDS011;62994;52.126;5.596;2023-04-23T09:41:41;4.32;;;3.92;;
17564;SDS011;62994;52.126;5.596;2023-04-23T09:44:10;5.50;;;3.85;;
17564;SDS011;62994;52.126;5.596;2023-04-23T09:46:38;4.93;;;3.80;;
17564;SDS011;62994;52.126;5.596;2023-04-23T09:49:07;4.97;;;3.10;;
17564;SDS011;62994;52.126;5.596;2023-04-23T09:51:40;4.22;;;3.50;;
17564;SDS011;62994;52.126;5.596;2023-04-23T09:54:13;3.65;;;3.30;;
17564;SDS011;62994;52.126;5.596;2023-04-23T09:56:41;5.05;;;3.15;;
17564;SDS011;62994;52.126;5.596;2023-04-23T09:59:21;7.68;;;2.80;;
17564;SDS011;62994;52.126;5.596;2023-04-23T10:01:49;5.50;;;2.85;;
17564;SDS011;62994;52.126;5.596;2023-04-23T10:04:17;6.47;;;2.38;;
17564;SDS011;62994;52.126;5.596;2023-04-23T10:06:47;4.65;;;2.72;;
17564;SDS011;62994;52.126;5.596;2023-04-23T10:09:16;5.43;;;3.35;;
17564;SDS011;62994;52.126;5.596;2023-04-23T10:11:47;4.10;;;2.70;;
17564;SDS011;62994;52.126;5.596;2023-04-23T10:14:17;4.07;;;2.10;;
17564;SDS011;62994;52.126;5.596;2023-04-23T10:16:45;4.57;;;2.33;;
17564;SDS011;62994;52.126;5.596;2023-04-23T10:19:13;4.95;;;2.20;;
17564;SDS011;62994;52.126;5.596;2023-04-23T10:21:43;3.25;;;2.05;;
17564;SDS011;62994;52.126;5.596;2023-04-23T10:24:12;5.63;;;2.50;;
17564;SDS011;62994;52.126;5.596;2023-04-23T10:26:41;7.18;;;2.25;;
17564;SDS011;62994;52.126;5.596;2023-04-23T10:29:13;2.03;;;1.83;;
17564;SDS011;62994;52.126;5.596;2023-04-23T10:31:41;7.28;;;2.63;;
17564;SDS011;62994;52.126;5.596;2023-04-23T10:34:09;3.10;;;2.00;;
17564;SDS011;62994;52.126;5.596;2023-04-23T10:36:36;4.05;;;2.30;;
17564;SDS011;62994;52.126;5.596;2023-04-23T10:39:04;7.25;;;2.60;;
17564;SDS011;62994;52.126;5.596;2023-04-23T10:41:35;3.92;;;2.08;;
17564;SDS011;62994;52.126;5.596;2023-04-23T10:44:08;4.68;;;2.15;;
17564;SDS011;62994;52.126;5.596;2023-04-23T10:46:37;5.70;;;2.40;;
17564;SDS011;62994;52.126;5.596;2023-04-23T10:49:05;3.58;;;1.75;;
17564;SDS011;62994;52.126;5.596;2023-04-23T10:51:33;4.05;;;1.70;;
17564;SDS011;62994;52.126;5.596;2023-04-23T10:54:02;4.03;;;1.95;;
17564;SDS011;62994;52.126;5.596;2023-04-23T10:56:29;2.10;;;1.92;;
17564;SDS011;62994;52.126;5.596;2023-04-23T10:59:00;5.32;;;2.33;;
17564;SDS011;62994;52.126;5.596;2023-04-23T11:01:32;3.55;;;2.10;;
17564;SDS011;62994;52.126;5.596;2023-04-23T11:04:04;3.83;;;1.90;;
17564;SDS011;62994;52.126;5.596;2023-04-23T11:06:49;3.03;;;1.80;;
17564;SDS011;62994;52.126;5.596;2023-04-23T11:09:31;2.72;;;1.77;;
17564;SDS011;62994;52.126;5.596;2023-04-23T11:12:06;2.85;;;1.80;;
17564;SDS011;62994;52.126;5.596;2023-04-23T11:14:45;3.83;;;1.85;;
17564;SDS011;62994;52.126;5.596;2023-04-23T11:17:16;3.88;;;1.60;;
17564;SDS011;62994;52.126;5.596;2023-04-23T11:20:06;4.18;;;1.63;;
17564;SDS011;62994;52.126;5.596;2023-04-23T11:22:34;2.30;;;1.60;;
17564;SDS011;62994;52.126;5.596;2023-04-23T11:25:02;6.93;;;1.63;;
17564;SDS011;62994;52.126;5.596;2023-04-23T11:27:31;5.07;;;1.83;;
17564;SDS011;62994;52.126;5.596;2023-04-23T11:29:58;4.50;;;1.65;;
17564;SDS011;62994;52.126;5.596;2023-04-23T11:32:26;3.63;;;1.60;;
17564;SDS011;62994;52.126;5.596;2023-04-23T11:34:54;3.50;;;1.50;;
17564;SDS011;62994;52.126;5.596;2023-04-23T11:37:23;3.67;;;1.50;;
17564;SDS011;62994;52.126;5.596;2023-04-23T11:39:51;1.63;;;1.38;;
17564;SDS011;62994;52.126;5.596;2023-04-23T11:42:18;2.20;;;1.10;;
17564;SDS011;62994;52.126;5.596;2023-04-23T11:44:46;1.40;;;1.15;;
17564;SDS011;62994;52.126;5.596;2023-04-23T11:47:13;4.60;;;1.58;;
17564;SDS011;62994;52.126;5.596;2023-04-23T11:49:44;3.50;;;1.50;;
17564;SDS011;62994;52.126;5.596;2023-04-23T11:52:11;3.30;;;1.77;;
17564;SDS011;62994;52.126;5.596;2023-04-23T11:54:39;3.70;;;1.35;;
17564;SDS011;62994;52.126;5.596;2023-04-23T11:57:07;2.72;;;1.67;;
17564;SDS011;62994;52.126;5.596;2023-04-23T11:59:34;5.43;;;1.60;;
17564;SDS011;62994;52.126;5.596;2023-04-23T12:02:01;3.85;;;1.75;;
17564;SDS011;62994;52.126;5.596;2023-04-23T12:04:29;4.28;;;1.55;;
17564;SDS011;62994;52.126;5.596;2023-04-23T12:06:59;3.05;;;1.40;;
17564;SDS011;62994;52.126;5.596;2023-04-23T12:09:26;2.35;;;1.35;;
17564;SDS011;62994;52.126;5.596;2023-04-23T12:11:54;6.82;;;1.25;;
17564;SDS011;62994;52.126;5.596;2023-04-23T12:14:26;1.98;;;1.50;;
17564;SDS011;62994;52.126;5.596;2023-04-23T12:16:55;3.38;;;1.13;;
17564;SDS011;62994;52.126;5.596;2023-04-23T12:19:25;1.73;;;1.45;;
17564;SDS011;62994;52.126;5.596;2023-04-23T12:21:54;2.42;;;1.35;;
17564;SDS011;62994;52.126;5.596;2023-04-23T12:24:25;2.38;;;1.00;;
17564;SDS011;62994;52.126;5.596;2023-04-23T12:26:53;1.63;;;1.10;;
17564;SDS011;62994;52.126;5.596;2023-04-23T12:29:22;2.70;;;1.17;;
17564;SDS011;62994;52.126;5.596;2023-04-23T12:31:51;3.17;;;1.40;;
17564;SDS011;62994;52.126;5.596;2023-04-23T12:34:19;2.60;;;1.38;;
17564;SDS011;62994;52.126;5.596;2023-04-23T12:36:47;2.53;;;1.30;;
17564;SDS011;62994;52.126;5.596;2023-04-23T12:39:21;5.25;;;1.38;;
17564;SDS011;62994;52.126;5.596;2023-04-23T12:41:52;1.38;;;1.10;;
17564;SDS011;62994;52.126;5.596;2023-04-23T12:44:20;2.05;;;1.40;;
17564;SDS011;62994;52.126;5.596;2023-04-23T12:46:48;2.78;;;1.30;;
17564;SDS011;62994;52.126;5.596;2023-04-23T12:49:20;1.35;;;1.25;;
17564;SDS011;62994;52.126;5.596;2023-04-23T12:51:47;3.33;;;1.40;;
17564;SDS011;62994;52.126;5.596;2023-04-23T12:54:14;3.42;;;1.65;;
17564;SDS011;62994;52.126;5.596;2023-04-23T12:56:43;2.55;;;1.23;;
17564;SDS011;62994;52.126;5.596;2023-04-23T12:59:10;1.92;;;1.58;;
17564;SDS011;62994;52.126;5.596;2023-04-23T13:01:37;5.10;;;1.60;;
17564;SDS011;62994;52.126;5.596;2023-04-23T13:04:05;1.38;;;1.20;;
17564;SDS011;62994;52.126;5.596;2023-04-23T13:06:33;3.40;;;1.27;;
17564;SDS011;62994;52.126;5.596;2023-04-23T13:09:01;1.90;;;1.65;;
17564;SDS011;62994;52.126;5.596;2023-04-23T13:11:29;2.03;;;1.58;;
17564;SDS011;62994;52.126;5.596;2023-04-23T13:13:58;1.95;;;1.75;;
17564;SDS011;62994;52.126;5.596;2023-04-23T13:16:26;1.25;;;1.15;;
17564;SDS011;62994;52.126;5.596;2023-04-23T13:18:53;1.95;;;1.48;;
17564;SDS011;62994;52.126;5.596;2023-04-23T13:21:21;2.90;;;1.42;;
17564;SDS011;62994;52.126;5.596;2023-04-23T13:23:48;3.75;;;1.45;;
17564;SDS011;62994;52.126;5.596;2023-04-23T13:26:15;2.20;;;1.35;;
17564;SDS011;62994;52.126;5.596;2023-04-23T13:28:43;2.53;;;1.30;;
17564;SDS011;62994;52.126;5.596;2023-04-23T13:31:12;2.30;;;1.17;;
17564;SDS011;62994;52.126;5.596;2023-04-23T13:33:39;1.80;;;1.02;;
17564;SDS011;62994;52.126;5.596;2023-04-23T13:36:07;2.90;;;1.40;;
17564;SDS011;62994;52.126;5.596;2023-04-23T13:38:35;5.05;;;1.33;;
17564;SDS011;62994;52.126;5.596;2023-04-23T13:41:02;1.48;;;1.27;;
17564;SDS011;62994;52.126;5.596;2023-04-23T13:43:29;5.32;;;1.63;;
17564;SDS011;62994;52.126;5.596;2023-04-23T13:45:57;2.83;;;1.20;;
17564;SDS011;62994;52.126;5.596;2023-04-23T13:48:26;3.97;;;1.42;;
17564;SDS011;62994;52.126;5.596;2023-04-23T13:50:55;1.55;;;1.17;;
17564;SDS011;62994;52.126;5.596;2023-04-23T13:53:23;4.43;;;1.35;;
17564;SDS011;62994;52.126;5.596;2023-04-23T13:55:51;3.22;;;1.42;;
17564;SDS011;62994;52.126;5.596;2023-04-23T13:58:20;1.67;;;1.20;;
17564;SDS011;62994;52.126;5.596;2023-04-23T14:00:48;1.55;;;1.40;;
17564;SDS011;62994;52.126;5.596;2023-04-23T14:03:15;6.63;;;1.48;;
17564;SDS011;62994;52.126;5.596;2023-04-23T14:05:45;1.45;;;1.30;;
17564;SDS011;62994;52.126;5.596;2023-04-23T14:08:13;4.03;;;1.27;;
17564;SDS011;62994;52.126;5.596;2023-04-23T14:10:40;2.20;;;1.42;;
17564;SDS011;62994;52.126;5.596;2023-04-23T14:13:07;2.05;;;1.30;;
17564;SDS011;62994;52.126;5.596;2023-04-23T14:15:35;2.30;;;1.30;;
17564;SDS011;62994;52.126;5.596;2023-04-23T14:18:02;1.98;;;1.40;;
17564;SDS011;62994;52.126;5.596;2023-04-23T14:20:30;4.55;;;1.30;;
17564;SDS011;62994;52.126;5.596;2023-04-23T14:23:02;2.58;;;1.25;;
17564;SDS011;62994;52.126;5.596;2023-04-23T14:25:45;1.98;;;1.55;;
17564;SDS011;62994;52.126;5.596;2023-04-23T14:28:22;4.43;;;1.30;;
17564;SDS011;62994;52.126;5.596;2023-04-23T14:30:59;2.20;;;1.30;;
17564;SDS011;62994;52.126;5.596;2023-04-23T14:33:27;3.00;;;1.27;;
17564;SDS011;62994;52.126;5.596;2023-04-23T14:35:54;2.67;;;1.20;;
17564;SDS011;62994;52.126;5.596;2023-04-23T14:38:24;1.05;;;1.00;;
17564;SDS011;62994;52.126;5.596;2023-04-23T14:40:52;1.17;;;1.00;;